Time;durP1;ratioP1;P1;durP2;ratioP2;P2;SDS_P1;SDS_P2;PMS_P1;PMS_P2;Temp;Humidity;BMP_temperature;BMP_pressure;BME280_temperature;BME280_humidity;BME280_pressure;Samples;Min_cycle;Max_cycle;Signal;HPM_P1;HPM_P2
2021/09/28 00:01:55;;;;;;;10.85;7.50;;;;;;;16.74;100.00;100065.03;6296308;28;20040;-75
2021/09/28 00:04:56;;;;;;;11.68;7.47;;;;;;;16.72;100.00;100064.31;6296128;28;20041;-74
2021/09/28 00:07:57;;;;;;;12.90;7.20;;;;;;;16.71;100.00;100062.63;6296129;28;20040;-75
2021/09/28 00:10:57;;;;;;;12.48;7.65;;;;;;;16.67;100.00;100059.44;6297140;28;20048;-75
2021/09/28 00:14:00;;;;;;;15.50;7.75;;;;;;;16.63;100.00;100060.66;6296150;28;20044;-74
2021/09/28 00:17:01;;;;;;;13.82;7.70;;;;;;;16.60;100.00;100054.84;6297025;28;20491;-74
2021/09/28 00:20:04;;;;;;;12.98;7.78;;;;;;;16.58;100.00;100062.03;6295815;28;20044;-74
2021/09/28 00:23:07;;;;;;;12.18;7.00;;;;;;;16.59;100.00;100061.88;6278977;28;20036;-74
2021/09/28 00:26:08;;;;;;;10.77;8.00;;;;;;;16.54;100.00;100066.72;6296697;28;20094;-74
2021/09/28 00:29:08;;;;;;;11.57;7.78;;;;;;;16.58;100.00;100062.03;6296742;28;20450;-74
2021/09/28 00:32:09;;;;;;;12.38;7.97;;;;;;;16.58;100.00;100068.13;6296464;28;20036;-74
2021/09/28 00:35:10;;;;;;;17.67;8.20;;;;;;;16.55;100.00;100059.66;6278637;28;20403;-74
2021/09/28 00:38:11;;;;;;;20.42;8.10;;;;;;;16.50;100.00;100062.69;6278747;28;20041;-75
2021/09/28 00:41:12;;;;;;;12.07;7.63;;;;;;;16.47;100.00;100057.69;6278565;28;20472;-74
2021/09/28 00:44:13;;;;;;;12.52;8.00;;;;;;;16.44;100.00;100057.94;6296234;28;20068;-74
2021/09/28 00:47:15;;;;;;;11.60;8.30;;;;;;;16.36;100.00;100055.13;6278593;28;20453;-75
2021/09/28 00:50:16;;;;;;;13.68;7.88;;;;;;;16.34;100.00;100057.91;6296223;28;20093;-74
2021/09/28 00:53:17;;;;;;;14.25;7.85;;;;;;;16.36;100.00;100055.13;6294871;28;20048;-74
2021/09/28 00:56:20;;;;;;;14.80;7.80;;;;;;;16.29;100.00;100055.66;6294859;28;20491;-74
2021/09/28 00:59:21;;;;;;;11.20;7.47;;;;;;;16.23;100.00;100061.44;6295818;28;20538;-74
2021/09/28 01:02:22;;;;;;;15.40;7.88;;;;;;;16.22;100.00;100061.56;6295746;28;20037;-74
2021/09/28 01:05:23;;;;;;;11.98;8.20;;;;;;;16.20;100.00;100056.44;6294603;28;20445;-74
2021/09/28 01:08:24;;;;;;;16.33;7.97;;;;;;;16.21;100.00;100049.38;6295770;28;20063;-75
2021/09/28 01:11:25;;;;;;;13.80;7.77;;;;;;;16.18;100.00;100060.16;6295257;28;20515;-75
2021/09/28 01:14:26;;;;;;;12.55;8.10;;;;;;;16.10;100.00;100060.78;6294733;28;20050;-75
2021/09/28 01:17:27;;;;;;;10.30;8.03;;;;;;;16.11;100.00;100059.84;6294430;28;20032;-75
2021/09/28 01:20:29;;;;;;;16.50;8.50;;;;;;;16.06;100.00;100052.34;6296120;28;20123;-75
2021/09/28 01:23:29;;;;;;;11.07;7.90;;;;;;;16.02;100.00;100061.47;6294305;28;20050;-75
2021/09/28 01:26:30;;;;;;;15.20;8.10;;;;;;;16.00;100.00;100055.50;6294288;28;20075;-74
2021/09/28 01:29:32;;;;;;;13.65;8.07;;;;;;;16.00;100.00;100055.50;6261072;28;20052;-75
2021/09/28 01:32:32;;;;;;;13.70;7.93;;;;;;;15.99;100.00;100052.97;6295349;28;20048;-75
2021/09/28 01:35:35;;;;;;;16.48;7.82;;;;;;;15.94;100.00;100048.09;6294171;28;20486;-74
2021/09/28 01:38:35;;;;;;;12.80;7.85;;;;;;;15.91;100.00;100046.53;6277813;28;20098;-75
2021/09/28 01:41:36;;;;;;;12.38;7.60;;;;;;;15.88;100.00;100053.88;6277441;28;20037;-75
2021/09/28 01:44:37;;;;;;;14.52;8.13;;;;;;;15.86;100.00;100051.38;6294060;28;20559;-75
2021/09/28 01:47:39;;;;;;;10.27;7.18;;;;;;;15.93;100.00;100048.22;6293906;28;20127;-75
2021/09/28 01:50:40;;;;;;;15.07;8.23;;;;;;;15.89;100.00;100050.28;6295274;28;20036;-75
2021/09/28 01:53:41;;;;;;;11.88;7.82;;;;;;;15.89;100.00;100055.53;6293853;28;20127;-74
2021/09/28 01:56:42;;;;;;;10.90;7.70;;;;;;;15.91;100.00;100056.25;6293810;28;20124;-75
2021/09/28 01:59:43;;;;;;;13.90;7.47;;;;;;;15.93;100.00;100062.22;6295431;28;20045;-75
2021/09/28 02:02:43;;;;;;;11.65;8.00;;;;;;;15.87;100.00;100066.19;6293842;28;20052;-75
2021/09/28 02:05:44;;;;;;;14.13;7.25;;;;;;;15.91;100.00;100072.03;6260644;28;20123;-75
2021/09/28 02:08:45;;;;;;;13.93;7.47;;;;;;;15.88;100.00;100065.22;6294012;28;20037;-75
2021/09/28 02:11:46;;;;;;;11.75;7.70;;;;;;;15.94;100.00;100076.19;6294981;28;20064;-75
2021/09/28 02:14:46;;;;;;;10.90;7.50;;;;;;;15.90;100.00;100070.38;6294986;28;20040;-75
2021/09/28 02:17:47;;;;;;;15.23;7.50;;;;;;;15.93;100.00;100071.91;6293643;28;20041;-74
2021/09/28 02:20:48;;;;;;;12.68;7.97;;;;;;;15.94;100.00;100074.41;6293729;28;20419;-74
2021/09/28 02:23:49;;;;;;;11.40;7.75;;;;;;;15.87;100.00;100073.25;6295519;28;20094;-74
2021/09/28 02:26:50;;;;;;;12.10;7.30;;;;;;;15.89;100.00;100074.78;6299573;28;20372;-74
2021/09/28 02:29:50;;;;;;;10.00;7.82;;;;;;;15.88;100.00;100070.50;6281655;28;20045;-74
2021/09/28 02:32:51;;;;;;;14.38;6.75;;;;;;;15.88;100.00;100075.75;6298355;28;20423;-74
2021/09/28 02:35:52;;;;;;;17.05;7.75;;;;;;;15.89;100.00;100076.59;6299319;28;20044;-74
2021/09/28 02:38:52;;;;;;;10.95;7.97;;;;;;;15.89;100.00;100072.16;6281571;28;20049;-74
2021/09/28 02:41:53;;;;;;;13.55;7.78;;;;;;;15.88;100.00;100067.88;6281343;28;20036;-74
2021/09/28 02:44:55;;;;;;;14.27;7.55;;;;;;;15.86;100.00;100063.69;6281185;28;20041;-74
2021/09/28 02:47:56;;;;;;;13.27;7.57;;;;;;;15.91;100.00;100072.84;6299113;28;20097;-74
2021/09/28 02:50:57;;;;;;;12.15;8.30;;;;;;;15.82;100.00;100067.53;6297843;28;20039;-74
2021/09/28 02:53:58;;;;;;;14.53;7.57;;;;;;;15.87;100.00;100075.88;6298925;28;20044;-74
2021/09/28 02:56:59;;;;;;;10.82;8.27;;;;;;;15.85;100.00;100078.63;6298822;28;20128;-74
2021/09/28 03:00:00;;;;;;;13.05;8.02;;;;;;;15.88;100.00;100080.19;6297592;28;20441;-74
2021/09/28 03:03:01;;;;;;;10.75;6.95;;;;;;;15.85;100.00;100083.06;6280964;28;20423;-74
2021/09/28 03:06:02;;;;;;;10.38;7.55;;;;;;;15.81;100.00;100077.22;6298627;28;20173;-74
2021/09/28 03:09:02;;;;;;;12.88;7.70;;;;;;;15.81;100.00;100082.47;6280789;28;20503;-74
2021/09/28 03:12:04;;;;;;;12.50;7.00;;;;;;;15.78;100.00;100077.47;6297248;28;20106;-74
2021/09/28 03:15:06;;;;;;;11.55;7.72;;;;;;;15.79;100.00;100075.69;6298348;28;20487;-74
2021/09/28 03:18:07;;;;;;;;;;;;;;;15.81;100.00;100086.91;6281096;28;20102;-74
2021/09/28 03:21:08;;;;;;;13.25;7.82;;;;;;;15.77;100.00;100073.16;6298666;28;19925;-74
2021/09/28 03:24:09;;;;;;;16.52;7.97;;;;;;;15.73;100.00;100082.31;6298163;28;20040;-75
2021/09/28 03:27:10;;;;;;;18.52;8.15;;;;;;;15.67;100.00;100080.97;6297058;28;20120;-75
2021/09/28 03:30:11;;;;;;;9.95;8.07;;;;;;;15.66;100.00;100078.47;6298202;28;20050;-75
2021/09/28 03:33:13;;;;;;;12.73;8.38;;;;;;;15.63;100.00;100082.19;6296883;28;20045;-75
2021/09/28 03:36:14;;;;;;;17.35;8.60;;;;;;;15.64;100.00;100081.19;6297543;28;20047;-75
2021/09/28 03:39:15;;;;;;;14.82;7.80;;;;;;;15.63;100.00;100079.56;6297883;28;20040;-75
2021/09/28 03:42:15;;;;;;;17.02;8.48;;;;;;;15.61;100.00;100080.66;6280027;28;20048;-75
2021/09/28 03:45:16;;;;;;;22.70;7.88;;;;;;;15.57;100.00;100077.41;6296582;28;20037;-75
2021/09/28 03:48:17;;;;;;;12.75;8.10;;;;;;;15.54;100.00;100082.91;6296623;28;20102;-75
2021/09/28 03:51:18;;;;;;;10.90;8.40;;;;;;;15.51;100.00;100080.53;6279827;28;20048;-75
2021/09/28 03:54:19;;;;;;;12.13;7.82;;;;;;;15.47;100.00;100084.38;6279680;28;20051;-75
2021/09/28 03:57:20;;;;;;;12.15;8.80;;;;;;;15.45;100.00;100081.03;6297303;28;20091;-75
2021/09/28 04:00:23;;;;;;;13.93;8.60;;;;;;;15.40;100.00;100077.94;6296332;28;20407;-75
2021/09/28 04:03:23;;;;;;;16.10;8.77;;;;;;;15.39;100.00;100081.53;6297116;28;20073;-71
2021/09/28 04:06:24;;;;;;;13.77;8.70;;;;;;;15.35;100.00;100086.19;6297310;28;20037;-72
2021/09/28 04:09:26;;;;;;;15.70;8.27;;;;;;;15.28;100.00;100082.41;6297493;28;20351;-75
2021/09/28 04:12:27;;;;;;;13.60;8.30;;;;;;;15.31;100.00;100088.22;6295912;28;20044;-76
2021/09/28 04:15:28;;;;;;;14.30;9.05;;;;;;;15.30;100.00;100096.25;6295896;28;20049;-76
2021/09/28 04:18:29;;;;;;;13.38;8.07;;;;;;;15.28;100.00;100096.38;6295860;28;20150;-76
2021/09/28 04:21:30;;;;;;;16.23;8.70;;;;;;;15.27;100.00;100094.69;6296042;28;20255;-75
2021/09/28 04:24:31;;;;;;;11.73;8.52;;;;;;;15.26;100.00;100094.84;6295489;28;20407;-75
2021/09/28 04:27:32;;;;;;;14.65;8.95;;;;;;;15.26;100.00;100094.84;6278925;28;20041;-75
2021/09/28 04:30:34;;;;;;;11.80;8.15;;;;;;;15.22;100.00;100096.88;6278929;28;20063;-76
2021/09/28 04:33:35;;;;;;;17.90;8.63;;;;;;;15.26;100.00;100100.09;6295576;28;20403;-75
2021/09/28 04:36:35;;;;;;;13.60;8.40;;;;;;;15.27;100.00;100105.22;6278885;28;20288;-75
2021/09/28 04:39:37;;;;;;;13.90;8.65;;;;;;;15.22;100.00;100109.19;6296418;28;20105;-75
2021/09/28 04:42:38;;;;;;;18.25;8.88;;;;;;;15.25;100.00;100109.75;6296291;28;20115;-75
2021/09/28 04:45:38;;;;;;;16.55;9.10;;;;;;;15.21;100.00;100099.63;6277325;28;20041;-75
2021/09/28 04:48:39;;;;;;;17.95;8.43;;;;;;;15.21;100.00;100108.31;6296427;28;20395;-71
2021/09/28 04:51:40;;;;;;;14.68;9.02;;;;;;;15.20;100.00;100103.22;6294778;28;20044;-71
2021/09/28 04:54:41;;;;;;;14.60;8.90;;;;;;;15.18;100.00;100110.38;6294885;28;20131;-71
2021/09/28 04:57:41;;;;;;;12.55;8.65;;;;;;;15.15;100.00;100105.34;6294639;28;20061;-71
2021/09/28 05:00:42;;;;;;;16.35;8.57;;;;;;;15.16;100.00;100107.88;6295847;28;20040;-71
2021/09/28 05:03:43;;;;;;;16.63;10.02;;;;;;;15.14;100.00;100107.16;6294397;28;20045;-71
2021/09/28 05:06:43;;;;;;;18.83;9.20;;;;;;;15.09;100.00;100112.78;6295527;28;20060;-71
2021/09/28 05:09:44;;;;;;;16.45;9.27;;;;;;;15.12;100.00;100114.31;6295473;28;20059;-74
2021/09/28 05:12:45;;;;;;;18.60;9.20;;;;;;;15.13;100.00;100123.03;6295557;28;20123;-74
2021/09/28 05:15:46;;;;;;;13.60;9.55;;;;;;;15.10;100.00;100124.94;6277587;28;20044;-74
2021/09/28 05:18:47;;;;;;;22.20;9.90;;;;;;;15.11;100.00;100128.41;6294162;28;20371;-72
2021/09/28 05:21:48;;;;;;;18.60;9.20;;;;;;;15.08;100.00;100121.59;6295453;28;20066;-71
2021/09/28 05:24:48;;;;;;;17.00;8.93;;;;;;;15.09;100.00;100125.94;6277260;28;20300;-74
2021/09/28 05:27:49;;;;;;;16.30;8.93;;;;;;;15.08;100.00;100124.22;6295217;28;20044;-74
2021/09/28 05:30:50;;;;;;;18.35;9.45;;;;;;;15.17;100.00;100129.72;6294100;28;20041;-71
2021/09/28 05:33:51;;;;;;;19.80;9.00;;;;;;;15.22;100.00;100136.28;6295550;28;20446;-71
2021/09/28 05:36:52;;;;;;;21.13;8.50;;;;;;;15.26;100.00;100137.72;6277683;28;20040;-74
2021/09/28 05:39:53;;;;;;;13.52;8.30;;;;;;;15.27;100.00;100142.00;6295035;28;20122;-71
2021/09/28 05:42:54;;;;;;;18.63;8.82;;;;;;;15.34;100.00;100141.53;6293886;28;20044;-75
2021/09/28 05:45:54;;;;;;;13.40;8.23;;;;;;;15.36;100.00;100140.47;6294926;28;20072;-74
2021/09/28 05:48:55;;;;;;;11.32;7.50;;;;;;;15.29;100.00;100144.53;6293835;28;20048;-71
2021/09/28 05:51:56;;;;;;;11.73;7.72;;;;;;;15.31;100.00;100145.25;6260588;28;20047;-74
2021/09/28 05:54:57;;;;;;;13.50;8.67;;;;;;;15.33;100.00;100148.59;6294975;28;20060;-71
2021/09/28 05:57:58;;;;;;;12.77;8.38;;;;;;;15.40;100.00;100151.56;6279189;28;20049;-74
2021/09/28 06:00:59;;;;;;;17.23;8.43;;;;;;;15.42;100.00;100153.13;6300079;28;20064;-74
2021/09/28 06:03:59;;;;;;;14.85;8.07;;;;;;;15.43;100.00;100141.63;6298813;28;20082;-74
2021/09/28 06:07:01;;;;;;;21.00;8.75;;;;;;;15.39;100.00;100152.53;6299787;28;20244;-74
2021/09/28 06:10:03;;;;;;;12.18;7.97;;;;;;;15.42;100.00;100161.00;6298961;28;20180;-74
2021/09/28 06:13:04;;;;;;;15.35;8.20;;;;;;;15.38;100.00;100158.72;6300020;28;20471;-71
2021/09/28 06:16:05;;;;;;;17.20;8.43;;;;;;;15.37;100.00;100157.06;6298552;28;20045;-74
2021/09/28 06:19:06;;;;;;;16.08;8.55;;;;;;;15.34;100.00;100160.78;6281667;28;20040;-71
2021/09/28 06:22:07;;;;;;;18.40;8.63;;;;;;;15.30;100.00;100162.81;6298693;28;20040;-74
2021/09/28 06:25:08;;;;;;;16.45;8.52;;;;;;;15.28;100.00;100169.97;6281421;28;20509;-71
2021/09/28 06:28:09;;;;;;;13.32;8.80;;;;;;;15.26;100.00;100173.69;6298064;28;20063;-74
2021/09/28 06:31:10;;;;;;;11.60;8.38;;;;;;;15.28;100.00;100169.16;6281499;28;20041;-74
2021/09/28 06:34:11;;;;;;;14.35;8.43;;;;;;;15.27;100.00;100172.72;6315123;28;20074;-74
2021/09/28 06:37:12;;;;;;;14.70;7.93;;;;;;;15.18;100.00;100174.28;6281358;28;20060;-74
2021/09/28 06:40:13;;;;;;;13.63;8.50;;;;;;;15.19;100.00;100172.50;6264734;28;20123;-74
2021/09/28 06:43:14;;;;;;;13.80;8.55;;;;;;;15.15;100.00;100166.63;6297901;28;20040;-74
2021/09/28 06:46:15;;;;;;;20.08;9.15;;;;;;;15.14;100.00;100172.03;6281020;28;20047;-74
2021/09/28 06:49:16;;;;;;;12.80;8.30;;;;;;;15.16;100.00;100178.84;6297737;28;20412;-74
2021/09/28 06:52:17;;;;;;;17.88;8.98;;;;;;;15.20;100.00;100182.06;6297606;28;20044;-74
2021/09/28 06:55:18;;;;;;;16.73;8.45;;;;;;;15.24;100.00;100180.88;6297474;28;20059;-74
2021/09/28 06:58:19;;;;;;;11.30;8.18;;;;;;;15.25;100.00;100178.09;6297482;28;20061;-74
2021/09/28 07:01:20;;;;;;;15.73;8.65;;;;;;;15.28;100.00;100195.44;6281209;28;20100;-74
2021/09/28 07:04:21;;;;;;;13.98;8.27;;;;;;;15.28;100.00;100188.38;6298507;28;20041;-74
2021/09/28 07:07:24;;;;;;;21.35;9.13;;;;;;;15.29;100.00;100202.34;6297232;28;20036;-74
2021/09/28 07:10:24;;;;;;;18.25;8.38;;;;;;;15.39;100.00;100199.84;6297526;28;20036;-71
2021/09/28 07:13:25;;;;;;;13.32;8.18;;;;;;;15.44;100.00;100203.78;6298360;28;20487;-74
2021/09/28 07:16:26;;;;;;;16.33;8.13;;;;;;;15.44;100.00;100209.06;6297101;28;20048;-74
2021/09/28 07:19:27;;;;;;;17.48;8.75;;;;;;;15.40;100.00;100207.63;6280469;28;20044;-74
2021/09/28 07:22:28;;;;;;;15.77;8.45;;;;;;;15.44;100.00;100202.94;6280315;28;20143;-71
2021/09/28 07:25:29;;;;;;;13.50;8.30;;;;;;;15.49;100.00;100211.31;6280279;28;20048;-70
2021/09/28 07:28:30;;;;;;;13.68;8.23;;;;;;;15.49;100.00;100209.50;6296822;28;20395;-70
2021/09/28 07:31:31;;;;;;;14.43;8.20;;;;;;;15.51;100.00;100212.03;6280194;28;20116;-70
2021/09/28 07:34:32;;;;;;;18.98;8.23;;;;;;;15.56;100.00;100209.03;6280086;28;20045;-71
2021/09/28 07:37:33;;;;;;;16.30;8.23;;;;;;;15.59;100.00;100214.06;6296851;28;20037;-70
2021/09/28 07:40:35;;;;;;;12.60;8.30;;;;;;;15.62;100.00;100211.16;6296480;28;20044;-70
2021/09/28 07:43:35;;;;;;;15.43;7.23;;;;;;;15.73;100.00;100220.84;6297672;28;20496;-70
2021/09/28 07:46:36;;;;;;;16.17;7.90;;;;;;;15.85;100.00;100210.19;6263141;28;20040;-74
2021/09/28 07:49:37;;;;;;;16.20;7.72;;;;;;;15.87;100.00;100217.97;6296410;28;20155;-74
2021/09/28 07:52:38;;;;;;;15.23;7.95;;;;;;;15.88;100.00;100217.00;6296402;28;20045;-73
2021/09/28 07:55:38;;;;;;;21.40;7.75;;;;;;;15.98;100.00;100207.41;6279623;28;20057;-74
2021/09/28 07:58:39;;;;;;;16.38;7.82;;;;;;;16.08;100.00;100212.75;6296198;28;20407;-75
2021/09/28 08:01:40;;;;;;;22.60;8.43;;;;;;;16.21;100.00;100220.50;6297269;28;20040;-75
2021/09/28 08:04:41;;;;;;;12.52;7.95;;;;;;;16.27;100.00;100212.91;6279370;28;20051;-74
2021/09/28 08:07:42;;;;;;;13.65;7.57;;;;;;;16.47;100.00;100219.19;6295894;28;20037;-75
2021/09/28 08:10:43;;;;;;;14.75;7.40;;;;;;;16.68;100.00;100223.63;6295911;28;20513;-75
2021/09/28 08:13:44;;;;;;;16.65;8.15;;;;;;;16.88;100.00;100219.31;6312730;28;20052;-75
2021/09/28 08:16:45;;;;;;;12.60;7.65;;;;;;;16.99;100.00;100205.25;6297043;28;20408;-74
2021/09/28 08:19:49;;;;;;;11.88;7.38;;;;;;;17.06;100.00;100214.28;6279026;28;20068;-74
2021/09/28 08:22:50;;;;;;;12.50;7.20;;;;;;;17.26;100.00;100213.41;6296738;28;20125;-75
2021/09/28 08:29:10;;;;;;;16.10;7.13;;;;;;;17.35;94.55;100216.22;6295455;28;20032;-75
2021/09/28 08:32:12;;;;;;;23.05;6.80;;;;;;;17.21;95.85;100214.75;6296467;28;20120;-74
2021/09/28 08:35:12;;;;;;;16.73;7.03;;;;;;;17.30;96.45;100220.09;6296541;28;20059;-75
2021/09/28 08:38:14;;;;;;;11.67;7.27;;;;;;;17.45;96.78;100223.19;6294998;28;20048;-71
2021/09/28 08:41:15;;;;;;;11.48;6.75;;;;;;;17.70;93.25;100227.13;6295049;28;20040;-71
2021/09/28 08:44:17;;;;;;;17.75;7.55;;;;;;;17.83;94.33;100229.59;6296176;28;20040;-71
2021/09/28 08:47:44;;;;;;;13.82;8.00;;;;;;;18.11;91.27;100230.56;6296072;28;20082;-71
2021/09/28 08:50:47;;;;;;;12.73;7.65;;;;;;;18.31;92.56;100230.59;6296167;28;20124;-74
2021/09/28 08:53:50;;;;;;;12.93;7.22;;;;;;;18.43;89.16;100231.25;6296014;28;20051;-75
2021/09/28 08:56:50;;;;;;;17.63;6.90;;;;;;;18.54;89.97;100233.78;6278207;28;20052;-75
2021/09/28 08:59:51;;;;;;;14.17;7.00;;;;;;;18.78;88.93;100232.47;6294636;28;20090;-75
2021/09/28 09:02:53;;;;;;;19.85;7.68;;;;;;;18.90;85.70;100226.94;6294656;28;20040;-75
2021/09/28 09:05:55;;;;;;;14.93;6.90;;;;;;;18.97;83.42;100237.75;6295690;28;20047;-75
2021/09/28 09:09:00;;;;;;;13.00;6.68;;;;;;;19.03;82.09;100228.44;6294561;28;20048;-74
2021/09/28 09:12:02;;;;;;;10.25;5.80;;;;;;;19.08;78.59;100231.47;6294506;28;20041;-75
2021/09/28 09:15:16;;;;;;;14.57;6.03;;;;;;;19.28;74.18;100233.06;6294565;28;20479;-74
2021/09/28 09:18:18;;;;;;;12.32;5.85;;;;;;;19.47;74.29;100233.94;6294289;28;20279;-74
2021/09/28 09:21:18;;;;;;;13.80;6.53;;;;;;;19.56;76.59;100229.56;6295548;28;20051;-75
2021/09/28 09:24:49;;;;;;;9.77;5.80;;;;;;;19.71;72.99;100228.97;6294290;28;20690;-75
2021/09/28 09:27:52;;;;;;;10.25;5.82;;;;;;;19.72;73.61;100225.34;6295403;28;20044;-74
2021/09/28 09:30:52;;;;;;;12.48;5.95;;;;;;;19.71;72.83;100228.16;6277526;28;20119;-75
2021/09/28 09:34:15;;;;;;;13.13;5.43;;;;;;;19.63;72.59;100234.16;6294894;28;20049;-75
2021/09/28 09:37:16;;;;;;;11.48;5.80;;;;;;;19.64;73.47;100230.53;6294001;28;20048;-75
2021/09/28 09:40:40;;;;;;;10.53;5.57;;;;;;;19.62;73.90;100231.63;6293839;28;20044;-75
2021/09/28 09:43:43;;;;;;;8.13;5.72;;;;;;;19.70;77.26;100224.66;6293804;28;20673;-75
2021/09/28 09:46:49;;;;;;;11.32;6.07;;;;;;;19.82;75.00;100225.28;6277273;28;20052;-75
2021/09/28 09:49:50;;;;;;;10.05;5.97;;;;;;;19.86;75.16;100223.19;6295026;28;20049;-75
2021/09/28 09:52:57;;;;;;;13.37;5.53;;;;;;;20.13;73.26;100231.03;6277097;28;20560;-75
2021/09/28 09:55:58;;;;;;;9.52;5.63;;;;;;;20.10;71.11;100225.25;6295438;28;20037;-75
2021/09/28 09:58:59;;;;;;;9.02;5.07;;;;;;;20.05;69.61;100228.31;6260542;28;20060;-72
2021/09/28 10:02:01;;;;;;;11.63;5.93;;;;;;;20.02;73.34;100228.63;6295004;28;20044;-72
2021/09/28 10:05:05;;;;;;;13.02;5.90;;;;;;;19.95;71.01;100226.72;6294861;28;20059;-71
2021/09/28 10:08:11;;;;;;;9.13;5.50;;;;;;;19.92;71.40;100228.69;6277048;28;20571;-75
2021/09/28 10:11:12;;;;;;;9.45;5.97;;;;;;;20.01;72.32;100226.13;6294730;28;20036;-75
2021/09/28 10:14:32;;;;;;;8.73;5.60;;;;;;;20.11;72.60;100225.06;6277122;28;20068;-75
2021/09/28 10:17:39;;;;;;;11.20;6.07;;;;;;;20.19;72.51;100232.25;6293356;28;20041;-75
2021/09/28 10:20:41;;;;;;;11.35;6.30;;;;;;;20.31;72.01;100236.34;6294609;28;20115;-72
2021/09/28 10:23:41;;;;;;;8.40;6.30;;;;;;;20.32;71.80;100238.03;6294502;28;20041;-74
2021/09/28 10:26:43;;;;;;;16.43;5.63;;;;;;;20.38;70.99;100244.50;6277041;28;20128;-74
2021/09/28 10:29:50;;;;;;;;;;;;;;;20.54;72.08;100247.31;6293730;28;20040;-71
2021/09/28 10:32:50;;;;;;;10.85;5.40;;;;;;;20.64;68.87;100247.25;6293451;28;19920;-75
2021/09/28 10:36:01;;;;;;;9.13;5.67;;;;;;;20.64;65.84;100251.72;6276673;28;20052;-75
2021/09/28 10:39:02;;;;;;;15.90;7.63;;;;;;;20.54;66.34;100251.78;6294433;28;20090;-75
2021/09/28 10:42:03;;;;;;;12.45;6.45;;;;;;;20.52;65.22;100251.09;6293211;28;20278;-75
2021/09/28 10:45:16;;;;;;;9.20;5.97;;;;;;;20.61;66.03;100246.72;6296632;28;20037;-74
2021/09/28 10:48:23;;;;;;;8.35;5.45;;;;;;;20.50;63.38;100247.78;6298868;28;20052;-75
2021/09/28 10:51:24;;;;;;;7.65;5.65;;;;;;;20.53;64.99;100240.34;6297691;28;20040;-75
2021/09/28 10:54:25;;;;;;;9.60;5.53;;;;;;;20.58;64.24;100239.06;6298906;28;20059;-75
2021/09/28 10:57:54;;;;;;;13.40;5.70;;;;;;;20.60;63.25;100242.41;6297779;28;20048;-75
2021/09/28 11:00:55;;;;;;;9.90;5.03;;;;;;;20.53;64.55;100240.34;6298698;28;20044;-75
2021/09/28 11:03:59;;;;;;;8.90;5.27;;;;;;;20.67;64.24;100238.16;6299079;28;20051;-75
2021/09/28 11:07:09;;;;;;;15.48;5.63;;;;;;;20.76;64.48;100231.13;6298621;28;20072;-72
2021/09/28 11:10:10;;;;;;;10.82;5.93;;;;;;;20.87;66.10;100241.44;6297242;28;20339;-72
2021/09/28 11:13:12;;;;;;;6.53;5.15;;;;;;;20.88;62.67;100240.47;6297238;28;20064;-72
2021/09/28 11:16:13;;;;;;;9.32;5.70;;;;;;;20.97;63.12;100236.03;6298471;28;20043;-75
2021/09/28 11:19:14;;;;;;;9.60;5.80;;;;;;;20.99;63.29;100226.94;6297202;28;20040;-75
2021/09/28 11:22:19;;;;;;;9.03;5.43;;;;;;;21.21;63.93;100224.72;6298385;28;20047;-76
2021/09/28 11:25:20;;;;;;;10.50;5.63;;;;;;;21.27;63.02;100222.28;6263836;28;20045;-76
2021/09/28 11:28:24;;;;;;;9.82;5.88;;;;;;;21.33;62.14;100216.34;6296840;28;20048;-74
2021/09/28 11:31:31;;;;;;;11.88;6.13;;;;;;;21.49;64.35;100214.75;6297951;28;20067;-74
2021/09/28 11:34:39;;;;;;;11.73;5.45;;;;;;;21.37;61.94;100216.00;6297916;28;20455;-71
2021/09/28 11:37:40;;;;;;;10.50;6.20;;;;;;;21.59;61.51;100223.44;6297872;28;20055;-73
2021/09/28 11:40:40;;;;;;;9.83;5.77;;;;;;;21.86;61.70;100219.69;6297678;28;20040;-74
2021/09/28 11:43:48;;;;;;;9.70;5.30;;;;;;;22.08;58.09;100212.91;6296509;28;20178;-71
2021/09/28 11:46:49;;;;;;;8.85;5.88;;;;;;;21.94;61.29;100210.91;6297708;28;20041;-71
2021/09/28 11:50:00;;;;;;;13.10;5.47;;;;;;;21.76;59.74;100210.19;6297618;28;20044;-71
2021/09/28 11:53:08;;;;;;;8.67;5.23;;;;;;;21.92;59.34;100215.53;6297643;28;20048;-77
2021/09/28 11:56:11;;;;;;;13.93;5.90;;;;;;;22.09;59.91;100208.41;6297242;28;20037;-72
2021/09/28 11:59:14;;;;;;;10.77;5.50;;;;;;;22.11;59.59;100209.09;6279241;28;20139;-74
2021/09/28 12:02:18;;;;;;;10.40;5.25;;;;;;;22.30;59.63;100219.44;6297368;28;20040;-74
2021/09/28 12:05:27;;;;;;;10.45;5.50;;;;;;;22.32;59.12;100208.63;6297274;28;20487;-75
2021/09/28 12:08:28;;;;;;;14.18;5.78;;;;;;;22.29;58.47;100211.63;6295956;28;20484;-71
2021/09/28 12:11:33;;;;;;;14.20;5.87;;;;;;;22.34;58.48;100211.94;6297128;28;20119;-71
2021/09/28 12:14:37;;;;;;;8.38;5.18;;;;;;;22.47;57.61;100214.13;6279931;28;20104;-71
2021/09/28 12:17:43;;;;;;;6.60;5.07;;;;;;;22.48;57.30;100216.59;6329425;28;20052;-71
2021/09/28 12:20:43;;;;;;;12.20;5.38;;;;;;;22.49;56.59;100220.94;6279369;28;20041;-71
2021/09/28 12:23:46;;;;;;;11.10;5.73;;;;;;;22.35;59.38;100216.28;6295510;28;20037;-72
2021/09/28 12:26:48;;;;;;;10.93;5.53;;;;;;;22.53;57.41;100219.59;6296619;28;20124;-76
2021/09/28 12:29:55;;;;;;;16.85;8.05;;;;;;;22.71;59.12;100219.41;6295377;28;20596;-76
2021/09/28 12:32:57;;;;;;;9.32;5.82;;;;;;;22.76;58.06;100223.41;6296586;28;20040;-76
2021/09/28 12:35:59;;;;;;;10.48;5.05;;;;;;;22.76;58.76;100218.09;6329491;28;20052;-76
2021/09/28 12:39:25;;;;;;;12.85;5.75;;;;;;;22.73;59.68;100221.88;6296308;28;20051;-72
2021/09/28 12:42:26;;;;;;;10.63;5.57;;;;;;;22.73;57.64;100212.09;6296446;28;20060;-75
2021/09/28 12:45:27;;;;;;;7.72;5.45;;;;;;;22.91;62.86;100219.88;6294873;28;20549;-72
2021/09/28 12:48:38;;;;;;;7.70;5.13;;;;;;;22.80;58.93;100209.59;6296350;28;20036;-71
2021/09/28 12:51:46;;;;;;;8.23;5.20;;;;;;;22.80;58.98;100214.09;6294835;28;20040;-72
2021/09/28 12:54:46;;;;;;;12.52;5.78;;;;;;;22.74;60.97;100220.91;6328880;28;20040;-75
2021/09/28 12:57:47;;;;;;;11.90;5.53;;;;;;;22.63;58.94;100218.56;6278087;28;20090;-74
2021/09/28 13:00:50;;;;;;;9.97;5.77;;;;;;;22.63;62.01;100208.78;6294692;28;20119;-75
2021/09/28 13:03:53;;;;;;;10.82;5.88;;;;;;;22.76;56.57;100215.44;6295688;28;20040;-71
2021/09/28 13:06:55;;;;;;;12.60;5.60;;;;;;;22.88;60.91;100217.56;6277543;28;20044;-71
2021/09/28 13:09:56;;;;;;;10.63;5.65;;;;;;;22.92;57.93;100213.56;6278013;28;20518;-71
2021/09/28 13:12:57;;;;;;;13.83;6.43;;;;;;;22.94;59.78;100208.06;6295605;28;20048;-72
2021/09/28 13:15:59;;;;;;;8.95;5.72;;;;;;;22.98;62.06;100217.38;6294359;28;20052;-72
2021/09/28 13:19:00;;;;;;;9.93;5.57;;;;;;;23.07;60.97;100216.38;6294327;28;20051;-74
2021/09/28 13:22:02;;;;;;;8.15;5.68;;;;;;;22.96;61.91;100213.19;6277889;28;20032;-75
2021/09/28 13:25:04;;;;;;;11.15;5.45;;;;;;;22.73;57.51;100201.47;6294113;28;20036;-71
2021/09/28 13:28:10;;;;;;;11.43;5.25;;;;;;;22.64;59.89;100218.41;6295395;28;20072;-72
2021/09/28 13:31:10;;;;;;;7.43;5.47;;;;;;;22.72;60.72;100201.63;6294048;28;20045;-71
2021/09/28 13:34:11;;;;;;;8.35;5.00;;;;;;;22.78;60.71;100208.09;6295252;28;20052;-75
2021/09/28 13:37:14;;;;;;;15.43;5.77;;;;;;;22.74;62.30;100204.94;6277263;28;20062;-72
2021/09/28 13:40:15;;;;;;;9.68;5.60;;;;;;;22.78;60.95;100206.28;6277480;28;20407;-71
2021/09/28 13:43:16;;;;;;;10.60;5.68;;;;;;;22.75;60.70;100203.94;6293767;28;20041;-75
2021/09/28 13:46:17;;;;;;;12.88;5.60;;;;;;;22.69;59.11;100208.13;6295070;28;20032;-75
2021/09/28 13:49:18;;;;;;;8.40;4.77;;;;;;;22.72;59.35;100206.94;6277128;28;20497;-75
2021/09/28 13:52:19;;;;;;;8.30;5.05;;;;;;;22.65;58.78;100208.59;6260765;28;20471;-72
2021/09/28 13:55:20;;;;;;;9.37;5.07;;;;;;;22.56;60.81;100215.78;6293963;28;20045;-73
2021/09/28 13:58:21;;;;;;;7.82;5.10;;;;;;;22.52;61.58;100217.09;6294818;28;20072;-72